Impacts TAF Board INFO
FOR SITUATIONAL AWARENESS. NOT TO BE USED FOR FLIGHT PLANNING PURPOSES.
IDs:

KORD - Chicago/O'Hare Intl, IL, US

Issued at 2336 UTC 11 Dec 2017
Updated at 0230 UTC 12 Dec 2017
Potential Impact None Slight Moderate High
Time<<13/03Z 13/04Z 13/05Z 13/06Z 13/07Z 13/08Z 13/09Z 13/10Z 13/11Z 13/12Z 13/13Z 13/14Z 13/15Z
Type PRVL PRVL PRVL
VIS >6 >6 >6
CIG 100 100 100
Cover OVC OVC OVC
FltCat VFR VFR VFR
WX -- -- --
WDir 310 310 310
WSpd 9 9 9
WGst -- -- --

Raw TAF
KORD 112336Z 1200/1306 35008KT 1SM -SN VV012
  FM120015 34014G21KT P6SM OVC025
  FM120400 33018G30KT P6SM OVC025
  FM121400 32015G22KT P6SM SCT035 SCT200
  FM122300 31009KT P6SM OVC100


METAR Board
Radar Display
Forecast Discussion

FOR SITUATIONAL AWARENESS. NOT TO BE USED FOR FLIGHT PLANNING PURPOSES.